sensor_id;sensor_type;location;lat;lon;timestamp;temperature;humidity
8633;DHT22;4354;49.832;10.746;2023-01-13T00:01:17;9.30;99.90
8633;DHT22;4354;49.832;10.746;2023-01-13T00:03:45;9.20;99.90
8633;DHT22;4354;49.832;10.746;2023-01-13T00:06:17;9.10;99.90
8633;DHT22;4354;49.832;10.746;2023-01-13T00:08:47;9.00;99.90
8633;DHT22;4354;49.832;10.746;2023-01-13T00:11:15;8.90;99.90
8633;DHT22;4354;49.832;10.746;2023-01-13T00:13:42;8.80;99.90
8633;DHT22;4354;49.832;10.746;2023-01-13T00:16:12;8.80;99.90
8633;DHT22;4354;49.832;10.746;2023-01-13T00:18:41;8.70;99.90
8633;DHT22;4354;49.832;10.746;2023-01-13T00:21:14;8.70;99.90
8633;DHT22;4354;49.832;10.746;2023-01-13T00:23:42;8.70;99.90
8633;DHT22;4354;49.832;10.746;2023-01-13T00:26:18;8.70;99.90
8633;DHT22;4354;49.832;10.746;2023-01-13T00:28:45;8.70;99.90
8633;DHT22;4354;49.832;10.746;2023-01-13T00:31:15;8.60;99.90
8633;DHT22;4354;49.832;10.746;2023-01-13T00:33:42;8.60;99.90
8633;DHT22;4354;49.832;10.746;2023-01-13T00:36:12;8.50;99.90
8633;DHT22;4354;49.832;10.746;2023-01-13T00:38:39;8.60;99.90
8633;DHT22;4354;49.832;10.746;2023-01-13T00:41:10;8.60;99.90
8633;DHT22;4354;49.832;10.746;2023-01-13T00:43:39;8.50;99.90
8633;DHT22;4354;49.832;10.746;2023-01-13T00:46:07;8.50;99.90
8633;DHT22;4354;49.832;10.746;2023-01-13T00:48:35;8.50;99.90
8633;DHT22;4354;49.832;10.746;2023-01-13T00:51:09;8.50;99.90
8633;DHT22;4354;49.832;10.746;2023-01-13T00:53:38;8.50;99.90
8633;DHT22;4354;49.832;10.746;2023-01-13T00:56:09;8.60;99.90
8633;DHT22;4354;49.832;10.746;2023-01-13T00:58:36;8.60;99.90
8633;DHT22;4354;49.832;10.746;2023-01-13T01:01:06;8.60;99.90
8633;DHT22;4354;49.832;10.746;2023-01-13T01:03:34;8.70;99.90
8633;DHT22;4354;49.832;10.746;2023-01-13T01:06:12;8.70;99.90
8633;DHT22;4354;49.832;10.746;2023-01-13T01:08:40;8.60;99.90
8633;DHT22;4354;49.832;10.746;2023-01-13T01:11:13;8.60;99.90
8633;DHT22;4354;49.832;10.746;2023-01-13T01:13:40;8.60;99.90
8633;DHT22;4354;49.832;10.746;2023-01-13T01:16:13;8.60;99.90
8633;DHT22;4354;49.832;10.746;2023-01-13T01:18:43;8.60;99.90
8633;DHT22;4354;49.832;10.746;2023-01-13T01:21:11;8.60;99.90
8633;DHT22;4354;49.832;10.746;2023-01-13T01:23:39;8.60;99.90
8633;DHT22;4354;49.832;10.746;2023-01-13T01:28:34;8.50;99.90
8633;DHT22;4354;49.832;10.746;2023-01-13T01:31:09;8.50;99.90
8633;DHT22;4354;49.832;10.746;2023-01-13T01:33:36;8.50;99.90
8633;DHT22;4354;49.832;10.746;2023-01-13T01:36:03;8.40;99.90
8633;DHT22;4354;49.832;10.746;2023-01-13T01:38:30;8.40;99.90
8633;DHT22;4354;49.832;10.746;2023-01-13T01:40:57;8.40;99.90
8633;DHT22;4354;49.832;10.746;2023-01-13T01:46:39;8.40;99.90
8633;DHT22;4354;49.832;10.746;2023-01-13T01:54:31;8.40;99.90
8633;DHT22;4354;49.832;10.746;2023-01-13T01:57:00;8.30;99.90
8633;DHT22;4354;49.832;10.746;2023-01-13T01:59:29;8.40;99.90
8633;DHT22;4354;49.832;10.746;2023-01-13T02:01:57;8.60;99.90
8633;DHT22;4354;49.832;10.746;2023-01-13T02:04:30;8.60;99.90
8633;DHT22;4354;49.832;10.746;2023-01-13T02:06:59;8.60;99.90
8633;DHT22;4354;49.832;10.746;2023-01-13T02:09:27;8.70;99.90
8633;DHT22;4354;49.832;10.746;2023-01-13T02:11:53;8.80;99.90
8633;DHT22;4354;49.832;10.746;2023-01-13T02:14:40;8.80;99.90
8633;DHT22;4354;49.832;10.746;2023-01-13T02:25:49;9.10;99.90
8633;DHT22;4354;49.832;10.746;2023-01-13T02:28:39;9.20;99.90
8633;DHT22;4354;49.832;10.746;2023-01-13T02:31:28;9.30;99.90
8633;DHT22;4354;49.832;10.746;2023-01-13T02:41:51;9.70;99.90
8633;DHT22;4354;49.832;10.746;2023-01-13T02:44:44;9.70;99.90
8633;DHT22;4354;49.832;10.746;2023-01-13T02:47:24;9.60;99.90
8633;DHT22;4354;49.832;10.746;2023-01-13T02:49:57;9.60;99.90
8633;DHT22;4354;49.832;10.746;2023-01-13T02:52:32;9.60;99.90
8633;DHT22;4354;49.832;10.746;2023-01-13T02:55:07;9.60;99.90
8633;DHT22;4354;49.832;10.746;2023-01-13T02:57:37;9.60;99.90
8633;DHT22;4354;49.832;10.746;2023-01-13T03:00:06;9.60;99.90
8633;DHT22;4354;49.832;10.746;2023-01-13T03:02:34;9.70;99.90
8633;DHT22;4354;49.832;10.746;2023-01-13T03:05:01;9.70;99.90
8633;DHT22;4354;49.832;10.746;2023-01-13T03:07:53;9.70;99.90
8633;DHT22;4354;49.832;10.746;2023-01-13T03:20:56;9.70;99.90
8633;DHT22;4354;49.832;10.746;2023-01-13T03:23:36;9.70;99.90
8633;DHT22;4354;49.832;10.746;2023-01-13T03:26:11;9.60;99.90
8633;DHT22;4354;49.832;10.746;2023-01-13T03:28:49;9.70;99.90
8633;DHT22;4354;49.832;10.746;2023-01-13T03:31:24;9.60;99.90
8633;DHT22;4354;49.832;10.746;2023-01-13T03:34:01;9.60;99.90
8633;DHT22;4354;49.832;10.746;2023-01-13T03:36:31;9.60;99.90
8633;DHT22;4354;49.832;10.746;2023-01-13T03:39:06;9.50;99.90
8633;DHT22;4354;49.832;10.746;2023-01-13T03:41:40;9.50;99.90
8633;DHT22;4354;49.832;10.746;2023-01-13T03:44:19;9.50;99.90
8633;DHT22;4354;49.832;10.746;2023-01-13T03:49:28;9.50;99.90
8633;DHT22;4354;49.832;10.746;2023-01-13T03:52:01;9.50;99.90
8633;DHT22;4354;49.832;10.746;2023-01-13T03:54:30;9.60;99.90
8633;DHT22;4354;49.832;10.746;2023-01-13T03:57:06;9.50;99.90
8633;DHT22;4354;49.832;10.746;2023-01-13T03:59:40;9.50;99.90
8633;DHT22;4354;49.832;10.746;2023-01-13T04:02:50;9.50;99.90
8633;DHT22;4354;49.832;10.746;2023-01-13T04:05:16;9.50;99.90
8633;DHT22;4354;49.832;10.746;2023-01-13T04:10:41;9.40;99.90
8633;DHT22;4354;49.832;10.746;2023-01-13T04:13:13;9.50;99.90
8633;DHT22;4354;49.832;10.746;2023-01-13T04:15:43;9.40;99.90
8633;DHT22;4354;49.832;10.746;2023-01-13T04:18:19;9.50;99.90
8633;DHT22;4354;49.832;10.746;2023-01-13T04:20:48;9.50;99.90
8633;DHT22;4354;49.832;10.746;2023-01-13T04:23:16;9.40;99.90
8633;DHT22;4354;49.832;10.746;2023-01-13T04:25:45;9.40;99.90
8633;DHT22;4354;49.832;10.746;2023-01-13T04:28:13;9.50;99.90
8633;DHT22;4354;49.832;10.746;2023-01-13T04:30:41;9.50;99.90
8633;DHT22;4354;49.832;10.746;2023-01-13T04:33:08;9.50;99.90
8633;DHT22;4354;49.832;10.746;2023-01-13T04:35:36;9.50;99.90
8633;DHT22;4354;49.832;10.746;2023-01-13T04:38:07;9.50;99.90
8633;DHT22;4354;49.832;10.746;2023-01-13T04:40:35;9.40;99.90
8633;DHT22;4354;49.832;10.746;2023-01-13T04:43:02;9.50;99.90
8633;DHT22;4354;49.832;10.746;2023-01-13T04:45:29;9.50;99.90
8633;DHT22;4354;49.832;10.746;2023-01-13T04:47:56;9.40;99.90
8633;DHT22;4354;49.832;10.746;2023-01-13T04:50:23;9.50;99.90
8633;DHT22;4354;49.832;10.746;2023-01-13T04:52:52;9.40;99.90
8633;DHT22;4354;49.832;10.746;2023-01-13T04:55:20;9.40;99.90
8633;DHT22;4354;49.832;10.746;2023-01-13T04:57:48;9.40;99.90
8633;DHT22;4354;49.832;10.746;2023-01-13T05:00:17;9.30;99.90
8633;DHT22;4354;49.832;10.746;2023-01-13T05:02:44;9.40;99.90
8633;DHT22;4354;49.832;10.746;2023-01-13T05:05:11;9.40;99.90
8633;DHT22;4354;49.832;10.746;2023-01-13T05:07:38;9.30;99.90
8633;DHT22;4354;49.832;10.746;2023-01-13T05:10:05;9.30;99.90
8633;DHT22;4354;49.832;10.746;2023-01-13T05:12:32;9.30;99.90
8633;DHT22;4354;49.832;10.746;2023-01-13T05:15:17;9.30;99.90
8633;DHT22;4354;49.832;10.746;2023-01-13T05:18:03;9.30;99.90
8633;DHT22;4354;49.832;10.746;2023-01-13T05:20:30;9.30;99.90
8633;DHT22;4354;49.832;10.746;2023-01-13T05:22:57;9.20;99.90
8633;DHT22;4354;49.832;10.746;2023-01-13T05:25:43;9.20;99.90
8633;DHT22;4354;49.832;10.746;2023-01-13T05:28:10;9.20;99.90
8633;DHT22;4354;49.832;10.746;2023-01-13T05:30:42;9.20;99.90
8633;DHT22;4354;49.832;10.746;2023-01-13T05:33:11;9.20;99.90
8633;DHT22;4354;49.832;10.746;2023-01-13T05:35:39;9.20;99.90
8633;DHT22;4354;49.832;10.746;2023-01-13T05:38:06;9.20;99.90
8633;DHT22;4354;49.832;10.746;2023-01-13T05:40:33;9.20;99.90
8633;DHT22;4354;49.832;10.746;2023-01-13T05:43:20;9.10;99.90
8633;DHT22;4354;49.832;10.746;2023-01-13T05:46:07;9.20;99.90
8633;DHT22;4354;49.832;10.746;2023-01-13T05:48:39;9.20;99.90
8633;DHT22;4354;49.832;10.746;2023-01-13T05:51:08;9.20;99.90
8633;DHT22;4354;49.832;10.746;2023-01-13T05:53:35;9.20;99.90
8633;DHT22;4354;49.832;10.746;2023-01-13T05:56:06;9.30;99.90
8633;DHT22;4354;49.832;10.746;2023-01-13T05:58:35;9.30;99.90
8633;DHT22;4354;49.832;10.746;2023-01-13T06:01:05;9.40;99.90
8633;DHT22;4354;49.832;10.746;2023-01-13T06:03:33;9.40;99.90
8633;DHT22;4354;49.832;10.746;2023-01-13T06:06:00;9.40;99.90
8633;DHT22;4354;49.832;10.746;2023-01-13T06:08:30;9.40;99.90
8633;DHT22;4354;49.832;10.746;2023-01-13T06:10:57;9.40;99.90
8633;DHT22;4354;49.832;10.746;2023-01-13T06:13:24;9.30;99.90
8633;DHT22;4354;49.832;10.746;2023-01-13T06:15:58;9.40;99.90
8633;DHT22;4354;49.832;10.746;2023-01-13T06:18:25;9.40;99.90
8633;DHT22;4354;49.832;10.746;2023-01-13T06:20:52;9.40;99.90
8633;DHT22;4354;49.832;10.746;2023-01-13T06:23:19;9.40;99.90
8633;DHT22;4354;49.832;10.746;2023-01-13T06:26:12;9.40;99.90
8633;DHT22;4354;49.832;10.746;2023-01-13T06:28:40;9.40;99.90
8633;DHT22;4354;49.832;10.746;2023-01-13T06:31:07;9.40;99.90
8633;DHT22;4354;49.832;10.746;2023-01-13T06:33:38;9.40;99.90
8633;DHT22;4354;49.832;10.746;2023-01-13T06:36:13;9.40;99.90
8633;DHT22;4354;49.832;10.746;2023-01-13T06:38:45;9.40;99.90
8633;DHT22;4354;49.832;10.746;2023-01-13T06:41:13;9.40;99.90
8633;DHT22;4354;49.832;10.746;2023-01-13T06:43:40;9.30;99.90
8633;DHT22;4354;49.832;10.746;2023-01-13T06:46:07;9.30;99.90
8633;DHT22;4354;49.832;10.746;2023-01-13T06:48:34;9.40;99.90
8633;DHT22;4354;49.832;10.746;2023-01-13T06:51:02;9.40;99.90
8633;DHT22;4354;49.832;10.746;2023-01-13T06:53:30;9.40;99.90
8633;DHT22;4354;49.832;10.746;2023-01-13T06:55:57;9.40;99.90
8633;DHT22;4354;49.832;10.746;2023-01-13T06:58:24;9.40;99.90
8633;DHT22;4354;49.832;10.746;2023-01-13T07:00:50;9.40;99.90
8633;DHT22;4354;49.832;10.746;2023-01-13T07:03:18;9.40;99.90
8633;DHT22;4354;49.832;10.746;2023-01-13T07:05:53;9.40;99.90
8633;DHT22;4354;49.832;10.746;2023-01-13T07:08:21;9.30;99.90
8633;DHT22;4354;49.832;10.746;2023-01-13T07:10:49;9.40;99.90
8633;DHT22;4354;49.832;10.746;2023-01-13T07:13:16;9.40;99.90
8633;DHT22;4354;49.832;10.746;2023-01-13T07:16:03;9.40;99.90
8633;DHT22;4354;49.832;10.746;2023-01-13T07:18:32;9.40;99.90
8633;DHT22;4354;49.832;10.746;2023-01-13T07:21:02;9.40;99.90
8633;DHT22;4354;49.832;10.746;2023-01-13T07:23:33;9.40;99.90
8633;DHT22;4354;49.832;10.746;2023-01-13T07:26:01;9.40;99.90
8633;DHT22;4354;49.832;10.746;2023-01-13T07:28:29;9.40;99.90
8633;DHT22;4354;49.832;10.746;2023-01-13T07:30:56;9.40;99.90
8633;DHT22;4354;49.832;10.746;2023-01-13T07:33:24;9.40;99.90
8633;DHT22;4354;49.832;10.746;2023-01-13T07:35:56;9.40;99.90
8633;DHT22;4354;49.832;10.746;2023-01-13T07:38:23;9.40;99.90
8633;DHT22;4354;49.832;10.746;2023-01-13T07:40:50;9.50;99.90
8633;DHT22;4354;49.832;10.746;2023-01-13T07:43:17;9.50;99.90
8633;DHT22;4354;49.832;10.746;2023-01-13T07:46:01;9.40;99.90
8633;DHT22;4354;49.832;10.746;2023-01-13T07:48:31;9.40;99.90
8633;DHT22;4354;49.832;10.746;2023-01-13T07:51:06;9.40;99.90
8633;DHT22;4354;49.832;10.746;2023-01-13T07:53:34;9.30;99.90
8633;DHT22;4354;49.832;10.746;2023-01-13T07:56:02;9.30;99.90
8633;DHT22;4354;49.832;10.746;2023-01-13T07:58:31;9.30;99.90
8633;DHT22;4354;49.832;10.746;2023-01-13T08:00:58;9.30;99.90
8633;DHT22;4354;49.832;10.746;2023-01-13T08:03:25;9.20;99.90
8633;DHT22;4354;49.832;10.746;2023-01-13T08:05:52;9.20;99.90
8633;DHT22;4354;49.832;10.746;2023-01-13T08:08:19;9.20;99.90
8633;DHT22;4354;49.832;10.746;2023-01-13T08:10:46;9.10;99.90
8633;DHT22;4354;49.832;10.746;2023-01-13T08:13:15;9.10;99.90
8633;DHT22;4354;49.832;10.746;2023-01-13T08:15:50;9.10;99.90
8633;DHT22;4354;49.832;10.746;2023-01-13T08:18:18;9.10;99.90
8633;DHT22;4354;49.832;10.746;2023-01-13T08:20:48;9.10;99.90
8633;DHT22;4354;49.832;10.746;2023-01-13T08:23:19;9.00;99.90
8633;DHT22;4354;49.832;10.746;2023-01-13T08:25:46;9.00;99.90
8633;DHT22;4354;49.832;10.746;2023-01-13T08:28:14;8.90;99.90
8633;DHT22;4354;49.832;10.746;2023-01-13T08:30:41;8.90;99.90
8633;DHT22;4354;49.832;10.746;2023-01-13T08:33:11;8.80;99.90
8633;DHT22;4354;49.832;10.746;2023-01-13T08:35:39;8.80;99.90
8633;DHT22;4354;49.832;10.746;2023-01-13T08:38:06;8.70;99.90
8633;DHT22;4354;49.832;10.746;2023-01-13T08:40:34;8.80;99.90
8633;DHT22;4354;49.832;10.746;2023-01-13T08:43:01;8.70;99.90
8633;DHT22;4354;49.832;10.746;2023-01-13T08:45:28;8.70;99.90
8633;DHT22;4354;49.832;10.746;2023-01-13T08:47:54;8.60;99.90
8633;DHT22;4354;49.832;10.746;2023-01-13T08:50:21;8.50;99.90
8633;DHT22;4354;49.832;10.746;2023-01-13T08:52:49;8.30;99.90
8633;DHT22;4354;49.832;10.746;2023-01-13T08:55:15;8.20;99.90
8633;DHT22;4354;49.832;10.746;2023-01-13T08:57:43;8.20;99.90
8633;DHT22;4354;49.832;10.746;2023-01-13T09:00:11;8.10;99.90
8633;DHT22;4354;49.832;10.746;2023-01-13T09:02:38;8.10;99.90
8633;DHT22;4354;49.832;10.746;2023-01-13T09:05:06;8.00;99.90
8633;DHT22;4354;49.832;10.746;2023-01-13T09:07:34;8.00;99.90
8633;DHT22;4354;49.832;10.746;2023-01-13T09:10:04;8.00;99.90
8633;DHT22;4354;49.832;10.746;2023-01-13T09:12:32;7.90;99.90
8633;DHT22;4354;49.832;10.746;2023-01-13T09:15:17;7.90;99.90
8633;DHT22;4354;49.832;10.746;2023-01-13T09:17:44;7.90;99.90
8633;DHT22;4354;49.832;10.746;2023-01-13T09:20:12;8.00;99.90
8633;DHT22;4354;49.832;10.746;2023-01-13T09:22:39;8.00;99.90
8633;DHT22;4354;49.832;10.746;2023-01-13T09:25:06;8.00;99.90
8633;DHT22;4354;49.832;10.746;2023-01-13T09:27:33;8.10;99.90
8633;DHT22;4354;49.832;10.746;2023-01-13T09:30:00;8.10;99.90
8633;DHT22;4354;49.832;10.746;2023-01-13T09:32:27;8.20;99.90
8633;DHT22;4354;49.832;10.746;2023-01-13T09:34:54;8.20;99.90
8633;DHT22;4354;49.832;10.746;2023-01-13T09:37:33;8.30;99.90
8633;DHT22;4354;49.832;10.746;2023-01-13T09:40:01;8.30;99.90
8633;DHT22;4354;49.832;10.746;2023-01-13T09:53:04;8.40;99.90
8633;DHT22;4354;49.832;10.746;2023-01-13T09:55:34;8.40;99.90
8633;DHT22;4354;49.832;10.746;2023-01-13T09:58:12;8.40;99.90
8633;DHT22;4354;49.832;10.746;2023-01-13T10:03:29;8.70;99.90
8633;DHT22;4354;49.832;10.746;2023-01-13T10:08:35;9.00;99.90
8633;DHT22;4354;49.832;10.746;2023-01-13T10:11:07;8.90;99.90
8633;DHT22;4354;49.832;10.746;2023-01-13T10:14:00;8.90;99.90
8633;DHT22;4354;49.832;10.746;2023-01-13T10:19:32;8.70;99.90
8633;DHT22;4354;49.832;10.746;2023-01-13T10:22:07;8.70;99.90
8633;DHT22;4354;49.832;10.746;2023-01-13T10:27:45;8.60;99.90
8633;DHT22;4354;49.832;10.746;2023-01-13T10:32:56;8.90;99.90
8633;DHT22;4354;49.832;10.746;2023-01-13T10:38:22;8.90;99.90
8633;DHT22;4354;49.832;10.746;2023-01-13T10:40:53;8.80;99.90
8633;DHT22;4354;49.832;10.746;2023-01-13T10:43:21;8.80;99.90
8633;DHT22;4354;49.832;10.746;2023-01-13T10:45:58;8.70;99.90
8633;DHT22;4354;49.832;10.746;2023-01-13T10:48:40;9.00;99.90
8633;DHT22;4354;49.832;10.746;2023-01-13T10:56:40;9.70;99.90
8633;DHT22;4354;49.832;10.746;2023-01-13T10:59:25;9.80;99.90
8633;DHT22;4354;49.832;10.746;2023-01-13T11:07:40;11.20;99.90
8633;DHT22;4354;49.832;10.746;2023-01-13T11:10:18;11.90;99.90
8633;DHT22;4354;49.832;10.746;2023-01-13T11:15:41;13.50;99.90
8633;DHT22;4354;49.832;10.746;2023-01-13T11:18:20;13.50;99.90
8633;DHT22;4354;49.832;10.746;2023-01-13T11:20:50;13.60;99.90
8633;DHT22;4354;49.832;10.746;2023-01-13T11:23:31;13.10;99.90
8633;DHT22;4354;49.832;10.746;2023-01-13T11:26:20;12.30;99.90
8633;DHT22;4354;49.832;10.746;2023-01-13T11:28:56;11.70;99.90
8633;DHT22;4354;49.832;10.746;2023-01-13T11:31:38;11.40;99.90
8633;DHT22;4354;49.832;10.746;2023-01-13T11:36:48;11.00;99.90
8633;DHT22;4354;49.832;10.746;2023-01-13T11:39:25;10.60;99.90
8633;DHT22;4354;49.832;10.746;2023-01-13T11:42:01;10.50;99.90
8633;DHT22;4354;49.832;10.746;2023-01-13T11:47:20;10.80;99.90
8633;DHT22;4354;49.832;10.746;2023-01-13T11:49:49;10.80;99.90
8633;DHT22;4354;49.832;10.746;2023-01-13T11:52:25;10.70;99.90
8633;DHT22;4354;49.832;10.746;2023-01-13T11:55:13;10.70;99.90
8633;DHT22;4354;49.832;10.746;2023-01-13T11:58:07;10.60;99.90
8633;DHT22;4354;49.832;10.746;2023-01-13T12:01:35;10.50;99.90
8633;DHT22;4354;49.832;10.746;2023-01-13T12:04:14;10.70;99.90
8633;DHT22;4354;49.832;10.746;2023-01-13T12:06:43;10.60;99.90
8633;DHT22;4354;49.832;10.746;2023-01-13T12:23:18;9.60;99.90
8633;DHT22;4354;49.832;10.746;2023-01-13T12:25:52;9.60;99.90
8633;DHT22;4354;49.832;10.746;2023-01-13T12:28:25;9.50;99.90
8633;DHT22;4354;49.832;10.746;2023-01-13T12:31:00;9.50;99.90
8633;DHT22;4354;49.832;10.746;2023-01-13T12:36:38;9.40;99.90
8633;DHT22;4354;49.832;10.746;2023-01-13T12:41:51;9.40;99.90
8633;DHT22;4354;49.832;10.746;2023-01-13T12:47:38;9.50;99.90
8633;DHT22;4354;49.832;10.746;2023-01-13T12:52:58;9.60;99.90
8633;DHT22;4354;49.832;10.746;2023-01-13T12:55:27;9.60;99.90
8633;DHT22;4354;49.832;10.746;2023-01-13T13:00:53;9.50;99.90
8633;DHT22;4354;49.832;10.746;2023-01-13T13:03:28;9.50;99.90
8633;DHT22;4354;49.832;10.746;2023-01-13T13:06:08;9.40;99.90
8633;DHT22;4354;49.832;10.746;2023-01-13T13:08:47;9.30;99.90
8633;DHT22;4354;49.832;10.746;2023-01-13T13:14:11;9.10;99.90
8633;DHT22;4354;49.832;10.746;2023-01-13T13:16:51;9.00;99.90
8633;DHT22;4354;49.832;10.746;2023-01-13T13:30:10;8.90;99.90
8633;DHT22;4354;49.832;10.746;2023-01-13T13:38:53;9.30;99.90
8633;DHT22;4354;49.832;10.746;2023-01-13T13:41:45;9.20;99.90
8633;DHT22;4354;49.832;10.746;2023-01-13T13:44:35;9.10;99.90
8633;DHT22;4354;49.832;10.746;2023-01-13T13:47:21;8.90;99.90
8633;DHT22;4354;49.832;10.746;2023-01-13T13:49:49;8.80;99.90
8633;DHT22;4354;49.832;10.746;2023-01-13T13:52:21;8.80;99.90
8633;DHT22;4354;49.832;10.746;2023-01-13T13:54:51;8.60;99.90
8633;DHT22;4354;49.832;10.746;2023-01-13T13:57:22;8.60;99.90
8633;DHT22;4354;49.832;10.746;2023-01-13T13:59:54;8.60;99.90
8633;DHT22;4354;49.832;10.746;2023-01-13T14:02:30;8.60;99.90
8633;DHT22;4354;49.832;10.746;2023-01-13T14:05:18;8.50;99.90
8633;DHT22;4354;49.832;10.746;2023-01-13T14:07:48;8.40;99.90
8633;DHT22;4354;49.832;10.746;2023-01-13T14:10:23;8.30;99.90
8633;DHT22;4354;49.832;10.746;2023-01-13T14:12:50;8.10;99.90
8633;DHT22;4354;49.832;10.746;2023-01-13T14:15:30;8.10;99.90
8633;DHT22;4354;49.832;10.746;2023-01-13T14:18:04;8.10;99.90
8633;DHT22;4354;49.832;10.746;2023-01-13T14:20:31;8.10;99.90
8633;DHT22;4354;49.832;10.746;2023-01-13T14:23:00;8.00;99.90
8633;DHT22;4354;49.832;10.746;2023-01-13T14:25:29;8.00;99.90
8633;DHT22;4354;49.832;10.746;2023-01-13T14:28:02;8.00;99.90
8633;DHT22;4354;49.832;10.746;2023-01-13T14:30:31;8.00;99.90
8633;DHT22;4354;49.832;10.746;2023-01-13T14:32:59;8.10;99.90
8633;DHT22;4354;49.832;10.746;2023-01-13T14:35:26;8.20;99.90
8633;DHT22;4354;49.832;10.746;2023-01-13T14:38:01;8.20;99.90
8633;DHT22;4354;49.832;10.746;2023-01-13T14:43:07;8.20;99.90
8633;DHT22;4354;49.832;10.746;2023-01-13T14:45:36;8.20;99.90
8633;DHT22;4354;49.832;10.746;2023-01-13T14:48:07;8.30;99.90
8633;DHT22;4354;49.832;10.746;2023-01-13T14:50:34;8.30;99.90
8633;DHT22;4354;49.832;10.746;2023-01-13T14:53:01;8.50;99.90
8633;DHT22;4354;49.832;10.746;2023-01-13T14:55:30;8.50;99.90
8633;DHT22;4354;49.832;10.746;2023-01-13T14:58:23;8.50;99.90
8633;DHT22;4354;49.832;10.746;2023-01-13T15:00:51;8.40;99.90
8633;DHT22;4354;49.832;10.746;2023-01-13T15:03:41;8.30;99.90
8633;DHT22;4354;49.832;10.746;2023-01-13T15:06:24;8.20;99.90
8633;DHT22;4354;49.832;10.746;2023-01-13T15:08:51;8.10;99.90
8633;DHT22;4354;49.832;10.746;2023-01-13T15:11:23;8.10;99.90
8633;DHT22;4354;49.832;10.746;2023-01-13T15:13:59;8.00;99.90
8633;DHT22;4354;49.832;10.746;2023-01-13T15:16:28;7.90;99.90
8633;DHT22;4354;49.832;10.746;2023-01-13T15:19:00;7.90;99.90
8633;DHT22;4354;49.832;10.746;2023-01-13T15:21:27;7.70;99.90
8633;DHT22;4354;49.832;10.746;2023-01-13T15:23:54;7.70;99.90
8633;DHT22;4354;49.832;10.746;2023-01-13T15:26:26;7.70;99.90
8633;DHT22;4354;49.832;10.746;2023-01-13T15:28:56;7.60;99.90
8633;DHT22;4354;49.832;10.746;2023-01-13T15:31:24;7.60;99.90
8633;DHT22;4354;49.832;10.746;2023-01-13T15:33:51;7.40;99.90
8633;DHT22;4354;49.832;10.746;2023-01-13T15:38:50;7.20;99.90
8633;DHT22;4354;49.832;10.746;2023-01-13T15:41:18;7.20;99.90
8633;DHT22;4354;49.832;10.746;2023-01-13T15:44:05;7.20;99.90
8633;DHT22;4354;49.832;10.746;2023-01-13T15:46:50;7.10;99.90
8633;DHT22;4354;49.832;10.746;2023-01-13T15:51:48;7.10;99.90
8633;DHT22;4354;49.832;10.746;2023-01-13T15:54:15;7.20;99.90
8633;DHT22;4354;49.832;10.746;2023-01-13T15:56:42;7.20;99.90
8633;DHT22;4354;49.832;10.746;2023-01-13T15:59:15;7.10;99.90
8633;DHT22;4354;49.832;10.746;2023-01-13T16:01:45;7.10;99.90
8633;DHT22;4354;49.832;10.746;2023-01-13T16:04:12;7.10;99.90
8633;DHT22;4354;49.832;10.746;2023-01-13T16:06:39;7.10;99.90
8633;DHT22;4354;49.832;10.746;2023-01-13T16:09:06;7.20;99.90
8633;DHT22;4354;49.832;10.746;2023-01-13T16:11:33;7.30;99.90
8633;DHT22;4354;49.832;10.746;2023-01-13T16:14:00;7.40;99.90
8633;DHT22;4354;49.832;10.746;2023-01-13T16:16:27;7.40;99.90
8633;DHT22;4354;49.832;10.746;2023-01-13T16:18:55;7.30;99.90
8633;DHT22;4354;49.832;10.746;2023-01-13T16:21:23;7.10;99.90
8633;DHT22;4354;49.832;10.746;2023-01-13T16:23:51;7.00;99.90
8633;DHT22;4354;49.832;10.746;2023-01-13T16:26:23;7.00;99.90
8633;DHT22;4354;49.832;10.746;2023-01-13T16:28:52;7.00;99.90
8633;DHT22;4354;49.832;10.746;2023-01-13T16:31:25;6.90;99.90
8633;DHT22;4354;49.832;10.746;2023-01-13T16:33:52;6.90;99.90
8633;DHT22;4354;49.832;10.746;2023-01-13T16:36:20;6.90;99.90
8633;DHT22;4354;49.832;10.746;2023-01-13T16:38:49;6.80;99.90
8633;DHT22;4354;49.832;10.746;2023-01-13T16:41:17;6.80;99.90
8633;DHT22;4354;49.832;10.746;2023-01-13T16:43:46;6.80;99.90
8633;DHT22;4354;49.832;10.746;2023-01-13T16:48:46;6.60;99.90
8633;DHT22;4354;49.832;10.746;2023-01-13T16:51:13;6.50;99.90
8633;DHT22;4354;49.832;10.746;2023-01-13T16:53:41;6.40;99.90
8633;DHT22;4354;49.832;10.746;2023-01-13T16:56:25;6.40;99.90
8633;DHT22;4354;49.832;10.746;2023-01-13T16:58:56;6.40;99.90
8633;DHT22;4354;49.832;10.746;2023-01-13T17:01:25;6.20;99.90
8633;DHT22;4354;49.832;10.746;2023-01-13T17:03:53;6.20;99.90
8633;DHT22;4354;49.832;10.746;2023-01-13T17:06:40;6.30;99.90
8633;DHT22;4354;49.832;10.746;2023-01-13T17:09:15;6.40;99.90
8633;DHT22;4354;49.832;10.746;2023-01-13T17:11:43;6.40;99.90
8633;DHT22;4354;49.832;10.746;2023-01-13T17:14:10;6.50;99.90
8633;DHT22;4354;49.832;10.746;2023-01-13T17:16:45;6.50;99.90
8633;DHT22;4354;49.832;10.746;2023-01-13T17:19:13;6.60;99.90
8633;DHT22;4354;49.832;10.746;2023-01-13T17:21:40;6.60;99.90
8633;DHT22;4354;49.832;10.746;2023-01-13T17:24:08;6.60;99.90
8633;DHT22;4354;49.832;10.746;2023-01-13T17:26:41;6.60;99.90
8633;DHT22;4354;49.832;10.746;2023-01-13T17:29:16;6.60;99.90
8633;DHT22;4354;49.832;10.746;2023-01-13T17:31:43;6.50;99.90
8633;DHT22;4354;49.832;10.746;2023-01-13T17:34:11;6.50;99.90
8633;DHT22;4354;49.832;10.746;2023-01-13T17:36:38;6.60;99.90
8633;DHT22;4354;49.832;10.746;2023-01-13T17:39:05;6.60;99.90
8633;DHT22;4354;49.832;10.746;2023-01-13T17:41:32;6.70;99.90
8633;DHT22;4354;49.832;10.746;2023-01-13T17:43:59;6.60;99.90
8633;DHT22;4354;49.832;10.746;2023-01-13T17:46:26;6.60;99.90
8633;DHT22;4354;49.832;10.746;2023-01-13T17:48:53;6.60;99.90
8633;DHT22;4354;49.832;10.746;2023-01-13T17:51:20;6.70;99.90
8633;DHT22;4354;49.832;10.746;2023-01-13T17:53:52;6.70;99.90
8633;DHT22;4354;49.832;10.746;2023-01-13T17:56:19;6.70;99.90
8633;DHT22;4354;49.832;10.746;2023-01-13T17:58:46;6.70;99.90
8633;DHT22;4354;49.832;10.746;2023-01-13T18:01:15;6.60;99.90
8633;DHT22;4354;49.832;10.746;2023-01-13T18:03:43;6.60;99.90
8633;DHT22;4354;49.832;10.746;2023-01-13T18:06:17;6.50;99.90
8633;DHT22;4354;49.832;10.746;2023-01-13T18:08:45;6.50;99.90
8633;DHT22;4354;49.832;10.746;2023-01-13T18:11:14;6.40;99.90
8633;DHT22;4354;49.832;10.746;2023-01-13T18:13:41;6.40;99.90
8633;DHT22;4354;49.832;10.746;2023-01-13T18:16:13;6.40;99.90
8633;DHT22;4354;49.832;10.746;2023-01-13T18:18:43;6.30;99.90
8633;DHT22;4354;49.832;10.746;2023-01-13T18:21:37;6.20;99.90
8633;DHT22;4354;49.832;10.746;2023-01-13T18:24:23;6.20;99.90
8633;DHT22;4354;49.832;10.746;2023-01-13T18:27:11;6.10;99.90
8633;DHT22;4354;49.832;10.746;2023-01-13T18:29:54;6.10;99.90
8633;DHT22;4354;49.832;10.746;2023-01-13T18:32:23;6.10;99.90
8633;DHT22;4354;49.832;10.746;2023-01-13T18:34:50;6.10;99.90
8633;DHT22;4354;49.832;10.746;2023-01-13T18:37:31;6.10;99.90
8633;DHT22;4354;49.832;10.746;2023-01-13T18:39:58;6.00;99.90
8633;DHT22;4354;49.832;10.746;2023-01-13T18:42:25;6.10;99.90
8633;DHT22;4354;49.832;10.746;2023-01-13T18:45:10;6.00;99.90
8633;DHT22;4354;49.832;10.746;2023-01-13T18:47:37;6.00;99.90
8633;DHT22;4354;49.832;10.746;2023-01-13T18:50:07;6.00;99.90
8633;DHT22;4354;49.832;10.746;2023-01-13T18:52:35;6.00;99.90
8633;DHT22;4354;49.832;10.746;2023-01-13T18:55:03;6.10;99.90
8633;DHT22;4354;49.832;10.746;2023-01-13T18:57:30;6.10;99.90